sensor_id;sensor_type;location;lat;lon;timestamp;P1;durP1;ratioP1;P2;durP2;ratioP2
4294;SDS011;2161;53.634;10.100;2023-04-01T00:00:56;578.23;;;122.80;;
4294;SDS011;2161;53.634;10.100;2023-04-01T00:03:24;568.03;;;118.57;;
4294;SDS011;2161;53.634;10.100;2023-04-01T00:05:51;582.30;;;124.90;;
4294;SDS011;2161;53.634;10.100;2023-04-01T00:08:17;574.23;;;121.87;;
4294;SDS011;2161;53.634;10.100;2023-04-01T00:10:43;571.30;;;119.27;;
4294;SDS011;2161;53.634;10.100;2023-04-01T00:13:08;572.83;;;118.70;;
4294;SDS011;2161;53.634;10.100;2023-04-01T00:15:34;570.00;;;118.67;;
4294;SDS011;2161;53.634;10.100;2023-04-01T00:18:00;572.60;;;119.97;;
4294;SDS011;2161;53.634;10.100;2023-04-01T00:20:26;569.37;;;119.27;;
4294;SDS011;2161;53.634;10.100;2023-04-01T00:22:53;585.13;;;127.13;;
4294;SDS011;2161;53.634;10.100;2023-04-01T00:25:18;572.80;;;121.37;;
4294;SDS011;2161;53.634;10.100;2023-04-01T00:27:44;575.27;;;123.07;;
4294;SDS011;2161;53.634;10.100;2023-04-01T00:30:10;569.03;;;118.57;;
4294;SDS011;2161;53.634;10.100;2023-04-01T00:32:36;574.73;;;121.93;;
4294;SDS011;2161;53.634;10.100;2023-04-01T00:35:02;566.67;;;118.67;;
4294;SDS011;2161;53.634;10.100;2023-04-01T00:37:28;577.63;;;124.30;;
4294;SDS011;2161;53.634;10.100;2023-04-01T00:39:54;580.17;;;124.27;;
4294;SDS011;2161;53.634;10.100;2023-04-01T00:42:20;569.37;;;117.27;;
4294;SDS011;2161;53.634;10.100;2023-04-01T00:44:52;577.73;;;123.70;;
4294;SDS011;2161;53.634;10.100;2023-04-01T00:47:19;572.13;;;121.97;;
4294;SDS011;2161;53.634;10.100;2023-04-01T00:49:46;570.90;;;118.87;;
4294;SDS011;2161;53.634;10.100;2023-04-01T00:52:16;569.53;;;118.30;;
4294;SDS011;2161;53.634;10.100;2023-04-01T00:54:47;568.73;;;119.53;;
4294;SDS011;2161;53.634;10.100;2023-04-01T00:57:19;566.87;;;117.13;;
4294;SDS011;2161;53.634;10.100;2023-04-01T00:59:55;576.60;;;123.07;;
4294;SDS011;2161;53.634;10.100;2023-04-01T01:02:21;569.93;;;118.47;;
4294;SDS011;2161;53.634;10.100;2023-04-01T01:04:47;573.33;;;120.70;;
4294;SDS011;2161;53.634;10.100;2023-04-01T01:07:26;569.30;;;118.97;;
4294;SDS011;2161;53.634;10.100;2023-04-01T01:12:40;569.53;;;119.47;;
4294;SDS011;2161;53.634;10.100;2023-04-01T01:15:21;566.67;;;117.00;;
4294;SDS011;2161;53.634;10.100;2023-04-01T01:26:34;568.30;;;119.03;;
4294;SDS011;2161;53.634;10.100;2023-04-01T01:32:27;572.23;;;120.70;;
4294;SDS011;2161;53.634;10.100;2023-04-01T01:36:00;566.53;;;117.97;;
4294;SDS011;2161;53.634;10.100;2023-04-01T01:38:22;569.53;;;119.67;;
4294;SDS011;2161;53.634;10.100;2023-04-01T01:40:51;571.00;;;120.43;;
4294;SDS011;2161;53.634;10.100;2023-04-01T01:43:23;568.20;;;118.07;;
4294;SDS011;2161;53.634;10.100;2023-04-01T01:45:52;570.93;;;120.67;;
4294;SDS011;2161;53.634;10.100;2023-04-01T01:48:20;569.73;;;119.23;;
4294;SDS011;2161;53.634;10.100;2023-04-01T01:50:48;578.60;;;124.97;;
4294;SDS011;2161;53.634;10.100;2023-04-01T01:53:15;568.73;;;118.87;;
4294;SDS011;2161;53.634;10.100;2023-04-01T01:55:42;565.60;;;118.10;;
4294;SDS011;2161;53.634;10.100;2023-04-01T01:58:13;575.00;;;124.37;;
4294;SDS011;2161;53.634;10.100;2023-04-01T02:01:01;576.73;;;122.47;;
4294;SDS011;2161;53.634;10.100;2023-04-01T02:03:31;570.63;;;117.83;;
4294;SDS011;2161;53.634;10.100;2023-04-01T02:06:01;577.73;;;123.77;;
4294;SDS011;2161;53.634;10.100;2023-04-01T02:08:34;568.33;;;118.87;;
4294;SDS011;2161;53.634;10.100;2023-04-01T02:11:10;576.90;;;126.87;;
4294;SDS011;2161;53.634;10.100;2023-04-01T02:14:12;568.37;;;122.43;;
4294;SDS011;2161;53.634;10.100;2023-04-01T02:16:37;566.30;;;122.18;;
4294;SDS011;2161;53.634;10.100;2023-04-01T02:19:11;569.80;;;120.63;;
4294;SDS011;2161;53.634;10.100;2023-04-01T02:21:38;570.60;;;120.57;;
4294;SDS011;2161;53.634;10.100;2023-04-01T02:24:08;574.03;;;122.97;;
4294;SDS011;2161;53.634;10.100;2023-04-01T02:26:37;564.03;;;116.77;;
4294;SDS011;2161;53.634;10.100;2023-04-01T02:29:05;574.40;;;121.10;;
4294;SDS011;2161;53.634;10.100;2023-04-01T02:31:33;570.27;;;120.00;;
4294;SDS011;2161;53.634;10.100;2023-04-01T02:33:59;569.60;;;120.57;;
4294;SDS011;2161;53.634;10.100;2023-04-01T02:36:25;569.10;;;117.57;;
4294;SDS011;2161;53.634;10.100;2023-04-01T02:38:51;570.20;;;120.47;;
4294;SDS011;2161;53.634;10.100;2023-04-01T02:41:19;565.33;;;116.47;;
4294;SDS011;2161;53.634;10.100;2023-04-01T02:43:45;569.83;;;118.97;;
4294;SDS011;2161;53.634;10.100;2023-04-01T02:46:11;566.13;;;117.57;;
4294;SDS011;2161;53.634;10.100;2023-04-01T02:48:37;565.53;;;118.10;;
4294;SDS011;2161;53.634;10.100;2023-04-01T02:51:02;570.03;;;120.27;;
4294;SDS011;2161;53.634;10.100;2023-04-01T02:53:28;566.07;;;117.67;;
4294;SDS011;2161;53.634;10.100;2023-04-01T02:55:54;571.00;;;119.67;;
4294;SDS011;2161;53.634;10.100;2023-04-01T02:58:20;569.90;;;118.50;;
4294;SDS011;2161;53.634;10.100;2023-04-01T03:00:46;569.63;;;119.60;;
4294;SDS011;2161;53.634;10.100;2023-04-01T03:03:12;562.93;;;115.77;;
4294;SDS011;2161;53.634;10.100;2023-04-01T03:05:38;577.10;;;123.23;;
4294;SDS011;2161;53.634;10.100;2023-04-01T03:08:04;572.43;;;120.77;;
4294;SDS011;2161;53.634;10.100;2023-04-01T03:10:30;567.57;;;118.60;;
4294;SDS011;2161;53.634;10.100;2023-04-01T03:12:55;591.87;;;132.87;;
4294;SDS011;2161;53.634;10.100;2023-04-01T03:15:21;568.10;;;118.77;;
4294;SDS011;2161;53.634;10.100;2023-04-01T03:17:46;565.80;;;117.67;;
4294;SDS011;2161;53.634;10.100;2023-04-01T03:20:12;565.00;;;117.90;;
4294;SDS011;2161;53.634;10.100;2023-04-01T03:22:38;574.47;;;122.00;;
4294;SDS011;2161;53.634;10.100;2023-04-01T03:25:05;569.47;;;120.47;;
4294;SDS011;2161;53.634;10.100;2023-04-01T03:27:32;571.13;;;120.73;;
4294;SDS011;2161;53.634;10.100;2023-04-01T03:29:59;573.73;;;121.90;;
4294;SDS011;2161;53.634;10.100;2023-04-01T03:32:24;564.53;;;117.77;;
4294;SDS011;2161;53.634;10.100;2023-04-01T03:34:52;575.83;;;123.93;;
4294;SDS011;2161;53.634;10.100;2023-04-01T03:37:17;563.90;;;117.27;;
4294;SDS011;2161;53.634;10.100;2023-04-01T03:39:43;569.60;;;119.70;;
4294;SDS011;2161;53.634;10.100;2023-04-01T03:42:08;565.93;;;118.03;;
4294;SDS011;2161;53.634;10.100;2023-04-01T03:44:34;563.30;;;116.73;;
4294;SDS011;2161;53.634;10.100;2023-04-01T03:47:00;568.87;;;120.03;;
4294;SDS011;2161;53.634;10.100;2023-04-01T03:49:25;565.93;;;118.83;;
4294;SDS011;2161;53.634;10.100;2023-04-01T03:51:51;572.03;;;121.50;;
4294;SDS011;2161;53.634;10.100;2023-04-01T03:54:17;567.43;;;117.50;;
4294;SDS011;2161;53.634;10.100;2023-04-01T03:56:44;566.83;;;118.73;;
4294;SDS011;2161;53.634;10.100;2023-04-01T03:59:09;569.27;;;119.17;;
4294;SDS011;2161;53.634;10.100;2023-04-01T04:01:35;566.33;;;119.73;;
4294;SDS011;2161;53.634;10.100;2023-04-01T04:04:01;571.53;;;122.07;;
4294;SDS011;2161;53.634;10.100;2023-04-01T04:06:27;574.10;;;122.43;;
4294;SDS011;2161;53.634;10.100;2023-04-01T04:08:53;575.63;;;123.73;;
4294;SDS011;2161;53.634;10.100;2023-04-01T04:11:19;562.90;;;117.07;;
4294;SDS011;2161;53.634;10.100;2023-04-01T04:13:45;568.80;;;119.83;;
4294;SDS011;2161;53.634;10.100;2023-04-01T04:16:12;569.13;;;119.57;;
4294;SDS011;2161;53.634;10.100;2023-04-01T04:18:38;568.53;;;119.57;;
4294;SDS011;2161;53.634;10.100;2023-04-01T04:21:04;567.93;;;119.77;;
4294;SDS011;2161;53.634;10.100;2023-04-01T04:23:30;561.03;;;116.20;;
4294;SDS011;2161;53.634;10.100;2023-04-01T04:28:28;562.53;;;117.60;;
4294;SDS011;2161;53.634;10.100;2023-04-01T04:30:54;573.60;;;124.07;;
4294;SDS011;2161;53.634;10.100;2023-04-01T04:33:20;567.47;;;120.00;;
4294;SDS011;2161;53.634;10.100;2023-04-01T04:35:47;566.80;;;118.57;;
4294;SDS011;2161;53.634;10.100;2023-04-01T04:38:12;561.53;;;116.50;;
4294;SDS011;2161;53.634;10.100;2023-04-01T04:40:38;559.70;;;115.67;;
4294;SDS011;2161;53.634;10.100;2023-04-01T04:43:04;579.10;;;127.63;;
4294;SDS011;2161;53.634;10.100;2023-04-01T04:45:30;564.00;;;119.07;;
4294;SDS011;2161;53.634;10.100;2023-04-01T04:47:56;570.10;;;121.57;;
4294;SDS011;2161;53.634;10.100;2023-04-01T04:50:22;568.27;;;119.07;;
4294;SDS011;2161;53.634;10.100;2023-04-01T04:52:48;570.03;;;120.83;;
4294;SDS011;2161;53.634;10.100;2023-04-01T04:55:13;565.63;;;117.70;;
4294;SDS011;2161;53.634;10.100;2023-04-01T04:57:40;562.13;;;117.43;;
4294;SDS011;2161;53.634;10.100;2023-04-01T05:00:06;565.60;;;119.40;;
4294;SDS011;2161;53.634;10.100;2023-04-01T05:02:32;560.53;;;116.90;;
4294;SDS011;2161;53.634;10.100;2023-04-01T05:04:58;565.90;;;119.50;;
4294;SDS011;2161;53.634;10.100;2023-04-01T05:07:24;563.23;;;117.10;;
4294;SDS011;2161;53.634;10.100;2023-04-01T05:09:50;559.57;;;116.97;;
4294;SDS011;2161;53.634;10.100;2023-04-01T05:12:15;568.40;;;121.33;;
4294;SDS011;2161;53.634;10.100;2023-04-01T05:14:41;568.10;;;120.90;;
4294;SDS011;2161;53.634;10.100;2023-04-01T05:17:10;559.40;;;116.47;;
4294;SDS011;2161;53.634;10.100;2023-04-01T05:19:36;572.43;;;123.60;;
4294;SDS011;2161;53.634;10.100;2023-04-01T05:22:02;566.43;;;120.20;;
4294;SDS011;2161;53.634;10.100;2023-04-01T05:24:29;553.97;;;114.90;;
4294;SDS011;2161;53.634;10.100;2023-04-01T05:26:55;559.60;;;117.17;;
4294;SDS011;2161;53.634;10.100;2023-04-01T05:29:22;555.20;;;115.30;;
4294;SDS011;2161;53.634;10.100;2023-04-01T05:31:48;564.83;;;120.00;;
4294;SDS011;2161;53.634;10.100;2023-04-01T05:34:14;565.20;;;122.07;;
4294;SDS011;2161;53.634;10.100;2023-04-01T05:36:40;558.77;;;117.87;;
4294;SDS011;2161;53.634;10.100;2023-04-01T05:39:06;553.90;;;115.40;;
4294;SDS011;2161;53.634;10.100;2023-04-01T05:41:34;552.00;;;113.17;;
4294;SDS011;2161;53.634;10.100;2023-04-01T05:44:00;561.83;;;118.23;;
4294;SDS011;2161;53.634;10.100;2023-04-01T05:46:26;552.17;;;114.33;;
4294;SDS011;2161;53.634;10.100;2023-04-01T05:48:51;562.53;;;120.47;;
4294;SDS011;2161;53.634;10.100;2023-04-01T05:51:17;554.93;;;116.40;;
4294;SDS011;2161;53.634;10.100;2023-04-01T05:53:42;554.87;;;114.23;;
4294;SDS011;2161;53.634;10.100;2023-04-01T05:56:08;558.63;;;118.47;;
4294;SDS011;2161;53.634;10.100;2023-04-01T05:58:36;553.00;;;114.30;;
4294;SDS011;2161;53.634;10.100;2023-04-01T06:01:04;553.20;;;115.30;;
4294;SDS011;2161;53.634;10.100;2023-04-01T06:03:31;548.93;;;112.60;;
4294;SDS011;2161;53.634;10.100;2023-04-01T06:05:57;561.43;;;118.30;;
4294;SDS011;2161;53.634;10.100;2023-04-01T06:08:23;549.97;;;112.60;;
4294;SDS011;2161;53.634;10.100;2023-04-01T06:16:31;545.30;;;111.03;;
4294;SDS011;2161;53.634;10.100;2023-04-01T06:19:17;553.67;;;116.00;;
4294;SDS011;2161;53.634;10.100;2023-04-01T06:24:47;549.70;;;114.57;;
4294;SDS011;2161;53.634;10.100;2023-04-01T06:30:30;548.35;;;112.22;;
4294;SDS011;2161;53.634;10.100;2023-04-01T06:35:42;550.13;;;114.20;;
4294;SDS011;2161;53.634;10.100;2023-04-01T06:38:21;551.67;;;116.40;;
4294;SDS011;2161;53.634;10.100;2023-04-01T06:43:38;547.10;;;112.97;;
4294;SDS011;2161;53.634;10.100;2023-04-01T06:54:47;552.60;;;115.60;;
4294;SDS011;2161;53.634;10.100;2023-04-01T06:57:20;552.33;;;115.45;;
4294;SDS011;2161;53.634;10.100;2023-04-01T06:59:56;550.75;;;115.55;;
4294;SDS011;2161;53.634;10.100;2023-04-01T07:02:32;549.90;;;114.17;;
4294;SDS011;2161;53.634;10.100;2023-04-01T07:05:02;553.53;;;115.93;;
4294;SDS011;2161;53.634;10.100;2023-04-01T07:07:33;547.17;;;112.28;;
4294;SDS011;2161;53.634;10.100;2023-04-01T07:10:10;547.43;;;114.57;;
4294;SDS011;2161;53.634;10.100;2023-04-01T07:12:50;544.40;;;112.57;;
4294;SDS011;2161;53.634;10.100;2023-04-01T07:17:48;545.87;;;112.03;;
4294;SDS011;2161;53.634;10.100;2023-04-01T07:20:22;546.22;;;112.20;;
4294;SDS011;2161;53.634;10.100;2023-04-01T07:22:52;547.88;;;113.55;;
4294;SDS011;2161;53.634;10.100;2023-04-01T07:25:23;547.00;;;112.93;;
4294;SDS011;2161;53.634;10.100;2023-04-01T07:27:52;552.38;;;117.88;;
4294;SDS011;2161;53.634;10.100;2023-04-01T07:30:21;546.90;;;112.87;;
4294;SDS011;2161;53.634;10.100;2023-04-01T07:35:20;541.53;;;111.93;;
4294;SDS011;2161;53.634;10.100;2023-04-01T07:38:22;548.73;;;114.37;;
4294;SDS011;2161;53.634;10.100;2023-04-01T07:41:26;551.60;;;115.40;;
4294;SDS011;2161;53.634;10.100;2023-04-01T07:44:09;547.83;;;114.87;;
4294;SDS011;2161;53.634;10.100;2023-04-01T07:46:46;538.70;;;110.13;;
4294;SDS011;2161;53.634;10.100;2023-04-01T07:49:26;547.35;;;114.00;;
4294;SDS011;2161;53.634;10.100;2023-04-01T07:52:06;549.22;;;115.35;;
4294;SDS011;2161;53.634;10.100;2023-04-01T07:54:57;548.72;;;116.20;;
4294;SDS011;2161;53.634;10.100;2023-04-01T08:00:19;542.58;;;111.63;;
4294;SDS011;2161;53.634;10.100;2023-04-01T08:03:00;546.58;;;114.22;;
4294;SDS011;2161;53.634;10.100;2023-04-01T08:05:41;550.55;;;117.22;;
4294;SDS011;2161;53.634;10.100;2023-04-01T08:11:06;544.13;;;114.10;;
4294;SDS011;2161;53.634;10.100;2023-04-01T08:16:34;545.15;;;113.20;;
4294;SDS011;2161;53.634;10.100;2023-04-01T08:22:03;552.00;;;117.25;;
4294;SDS011;2161;53.634;10.100;2023-04-01T08:24:43;550.58;;;117.05;;
4294;SDS011;2161;53.634;10.100;2023-04-01T08:27:16;541.83;;;112.15;;
4294;SDS011;2161;53.634;10.100;2023-04-01T08:30:15;548.45;;;115.45;;
4294;SDS011;2161;53.634;10.100;2023-04-01T08:32:47;541.85;;;112.80;;
4294;SDS011;2161;53.634;10.100;2023-04-01T08:35:32;544.38;;;112.25;;
4294;SDS011;2161;53.634;10.100;2023-04-01T08:38:10;552.80;;;117.72;;
4294;SDS011;2161;53.634;10.100;2023-04-01T08:43:39;545.78;;;113.78;;
4294;SDS011;2161;53.634;10.100;2023-04-01T08:46:29;545.47;;;114.18;;
4294;SDS011;2161;53.634;10.100;2023-04-01T08:49:24;539.30;;;112.53;;
4294;SDS011;2161;53.634;10.100;2023-04-01T09:03:31;549.72;;;115.72;;
4294;SDS011;2161;53.634;10.100;2023-04-01T09:25:52;545.60;;;114.55;;
4294;SDS011;2161;53.634;10.100;2023-04-01T09:36:45;541.75;;;112.15;;
4294;SDS011;2161;53.634;10.100;2023-04-01T09:45:01;543.88;;;113.45;;
4294;SDS011;2161;53.634;10.100;2023-04-01T09:50:31;543.50;;;114.63;;
4294;SDS011;2161;53.634;10.100;2023-04-01T09:59:03;545.17;;;114.25;;
4294;SDS011;2161;53.634;10.100;2023-04-01T10:01:42;554.83;;;118.90;;
4294;SDS011;2161;53.634;10.100;2023-04-01T10:04:22;537.55;;;110.97;;
4294;SDS011;2161;53.634;10.100;2023-04-01T10:06:57;542.88;;;112.55;;
4294;SDS011;2161;53.634;10.100;2023-04-01T10:13:31;549.95;;;116.68;;
4294;SDS011;2161;53.634;10.100;2023-04-01T10:19:10;546.60;;;115.45;;
4294;SDS011;2161;53.634;10.100;2023-04-01T10:55:48;545.93;;;114.60;;
4294;SDS011;2161;53.634;10.100;2023-04-01T10:58:47;542.25;;;112.25;;
4294;SDS011;2161;53.634;10.100;2023-04-01T11:04:33;540.93;;;113.87;;
4294;SDS011;2161;53.634;10.100;2023-04-01T11:16:05;547.30;;;117.13;;
4294;SDS011;2161;53.634;10.100;2023-04-01T11:21:44;540.60;;;112.30;;
4294;SDS011;2161;53.634;10.100;2023-04-01T11:26:52;539.30;;;112.65;;
4294;SDS011;2161;53.634;10.100;2023-04-01T11:32:06;541.75;;;114.72;;
4294;SDS011;2161;53.634;10.100;2023-04-01T11:37:24;542.93;;;115.00;;
4294;SDS011;2161;53.634;10.100;2023-04-01T11:45:51;538.78;;;111.35;;
4294;SDS011;2161;53.634;10.100;2023-04-01T11:53:59;555.53;;;121.97;;
4294;SDS011;2161;53.634;10.100;2023-04-01T12:02:16;548.88;;;118.00;;
4294;SDS011;2161;53.634;10.100;2023-04-01T12:10:21;545.55;;;114.65;;
4294;SDS011;2161;53.634;10.100;2023-04-01T12:16:07;546.88;;;117.90;;
4294;SDS011;2161;53.634;10.100;2023-04-01T12:19:01;538.17;;;113.70;;
4294;SDS011;2161;53.634;10.100;2023-04-01T12:24:47;539.53;;;115.13;;
4294;SDS011;2161;53.634;10.100;2023-04-01T12:27:28;549.45;;;119.43;;
4294;SDS011;2161;53.634;10.100;2023-04-01T12:30:02;540.13;;;113.57;;
4294;SDS011;2161;53.634;10.100;2023-04-01T12:36:00;543.92;;;116.38;;
4294;SDS011;2161;53.634;10.100;2023-04-01T12:46:34;534.08;;;111.72;;
4294;SDS011;2161;53.634;10.100;2023-04-01T12:58:02;541.63;;;114.05;;
4294;SDS011;2161;53.634;10.100;2023-04-01T13:08:49;537.17;;;111.68;;
4294;SDS011;2161;53.634;10.100;2023-04-01T13:19:53;541.90;;;114.38;;
4294;SDS011;2161;53.634;10.100;2023-04-01T13:22:32;535.63;;;111.03;;
4294;SDS011;2161;53.634;10.100;2023-04-01T13:25:27;552.30;;;119.80;;
4294;SDS011;2161;53.634;10.100;2023-04-01T13:28:12;539.43;;;113.20;;
4294;SDS011;2161;53.634;10.100;2023-04-01T13:55:00;534.65;;;112.88;;
4294;SDS011;2161;53.634;10.100;2023-04-01T13:57:56;538.88;;;113.15;;
4294;SDS011;2161;53.634;10.100;2023-04-01T14:09:45;539.05;;;114.65;;
4294;SDS011;2161;53.634;10.100;2023-04-01T14:12:31;541.63;;;113.93;;
4294;SDS011;2161;53.634;10.100;2023-04-01T14:15:27;536.08;;;112.10;;
4294;SDS011;2161;53.634;10.100;2023-04-01T14:21:29;537.78;;;113.07;;
4294;SDS011;2161;53.634;10.100;2023-04-01T14:29:41;535.70;;;111.63;;
4294;SDS011;2161;53.634;10.100;2023-04-01T14:32:16;534.13;;;111.18;;
4294;SDS011;2161;53.634;10.100;2023-04-01T14:38:02;540.60;;;115.30;;
4294;SDS011;2161;53.634;10.100;2023-04-01T14:43:27;534.47;;;112.30;;
4294;SDS011;2161;53.634;10.100;2023-04-01T14:46:19;535.30;;;111.93;;
4294;SDS011;2161;53.634;10.100;2023-04-01T14:49:51;535.83;;;112.53;;
4294;SDS011;2161;53.634;10.100;2023-04-01T14:52:10;538.53;;;114.65;;
4294;SDS011;2161;53.634;10.100;2023-04-01T14:54:49;533.95;;;111.88;;
4294;SDS011;2161;53.634;10.100;2023-04-01T14:57:27;533.83;;;110.65;;
4294;SDS011;2161;53.634;10.100;2023-04-01T14:59:59;538.17;;;114.38;;
4294;SDS011;2161;53.634;10.100;2023-04-01T15:08:32;544.55;;;118.95;;
4294;SDS011;2161;53.634;10.100;2023-04-01T15:17:05;526.58;;;109.18;;
4294;SDS011;2161;53.634;10.100;2023-04-01T15:20:22;535.13;;;114.82;;
4294;SDS011;2161;53.634;10.100;2023-04-01T15:22:50;536.40;;;114.40;;
4294;SDS011;2161;53.634;10.100;2023-04-01T15:25:37;530.90;;;111.90;;
4294;SDS011;2161;53.634;10.100;2023-04-01T15:28:34;535.40;;;112.10;;
4294;SDS011;2161;53.634;10.100;2023-04-01T15:31:15;547.45;;;119.68;;
4294;SDS011;2161;53.634;10.100;2023-04-01T15:42:27;536.30;;;113.38;;
4294;SDS011;2161;53.634;10.100;2023-04-01T15:47:33;530.92;;;110.45;;
4294;SDS011;2161;53.634;10.100;2023-04-01T16:01:12;540.10;;;115.32;;
4294;SDS011;2161;53.634;10.100;2023-04-01T16:09:58;527.22;;;110.13;;
4294;SDS011;2161;53.634;10.100;2023-04-01T16:12:46;527.33;;;110.05;;
4294;SDS011;2161;53.634;10.100;2023-04-01T16:18:30;532.08;;;112.63;;
4294;SDS011;2161;53.634;10.100;2023-04-01T16:21:59;530.10;;;111.03;;
4294;SDS011;2161;53.634;10.100;2023-04-01T16:27:18;533.33;;;112.38;;
4294;SDS011;2161;53.634;10.100;2023-04-01T16:30:00;530.50;;;111.57;;
4294;SDS011;2161;53.634;10.100;2023-04-01T16:33:08;530.17;;;113.20;;
4294;SDS011;2161;53.634;10.100;2023-04-01T16:41:41;524.63;;;110.05;;
4294;SDS011;2161;53.634;10.100;2023-04-01T16:47:33;525.95;;;109.82;;
4294;SDS011;2161;53.634;10.100;2023-04-01T16:50:13;524.10;;;108.80;;
4294;SDS011;2161;53.634;10.100;2023-04-01T16:58:22;523.83;;;108.82;;
4294;SDS011;2161;53.634;10.100;2023-04-01T17:01:13;535.95;;;115.53;;
4294;SDS011;2161;53.634;10.100;2023-04-01T17:03:46;523.42;;;108.65;;
4294;SDS011;2161;53.634;10.100;2023-04-01T17:11:57;521.75;;;108.28;;
4294;SDS011;2161;53.634;10.100;2023-04-01T17:20:48;520.65;;;107.68;;
4294;SDS011;2161;53.634;10.100;2023-04-01T17:23:28;522.90;;;109.80;;
4294;SDS011;2161;53.634;10.100;2023-04-01T17:25:59;530.42;;;111.32;;
4294;SDS011;2161;53.634;10.100;2023-04-01T17:28:44;531.13;;;112.30;;
4294;SDS011;2161;53.634;10.100;2023-04-01T17:40:15;526.77;;;110.43;;
4294;SDS011;2161;53.634;10.100;2023-04-01T17:46:11;524.72;;;109.05;;
4294;SDS011;2161;53.634;10.100;2023-04-01T17:48:26;531.88;;;113.88;;
4294;SDS011;2161;53.634;10.100;2023-04-01T17:51:35;519.60;;;108.28;;
4294;SDS011;2161;53.634;10.100;2023-04-01T17:57:22;525.35;;;108.28;;
4294;SDS011;2161;53.634;10.100;2023-04-01T18:00:33;524.45;;;108.38;;
4294;SDS011;2161;53.634;10.100;2023-04-01T18:02:45;520.47;;;108.88;;
4294;SDS011;2161;53.634;10.100;2023-04-01T18:22:32;530.15;;;111.38;;
4294;SDS011;2161;53.634;10.100;2023-04-01T18:30:51;521.35;;;109.93;;
4294;SDS011;2161;53.634;10.100;2023-04-01T18:33:50;522.97;;;110.78;;
4294;SDS011;2161;53.634;10.100;2023-04-01T18:36:37;527.80;;;113.18;;
4294;SDS011;2161;53.634;10.100;2023-04-01T18:39:19;522.35;;;108.80;;
4294;SDS011;2161;53.634;10.100;2023-04-01T18:42:14;524.10;;;110.93;;
4294;SDS011;2161;53.634;10.100;2023-04-01T18:44:55;521.90;;;108.63;;
4294;SDS011;2161;53.634;10.100;2023-04-01T18:53:08;521.08;;;108.43;;
4294;SDS011;2161;53.634;10.100;2023-04-01T18:55:57;521.45;;;109.90;;
4294;SDS011;2161;53.634;10.100;2023-04-01T19:00:59;518.90;;;107.15;;
4294;SDS011;2161;53.634;10.100;2023-04-01T19:03:41;516.05;;;108.97;;
4294;SDS011;2161;53.634;10.100;2023-04-01T19:08:52;517.55;;;108.93;;
4294;SDS011;2161;53.634;10.100;2023-04-01T19:13:59;515.63;;;108.07;;
4294;SDS011;2161;53.634;10.100;2023-04-01T19:19:20;515.83;;;107.38;;
4294;SDS011;2161;53.634;10.100;2023-04-01T19:30:31;513.70;;;106.65;;
4294;SDS011;2161;53.634;10.100;2023-04-01T19:35:35;513.70;;;107.38;;
4294;SDS011;2161;53.634;10.100;2023-04-01T19:38:31;516.92;;;108.88;;
4294;SDS011;2161;53.634;10.100;2023-04-01T19:43:54;514.88;;;111.85;;
4294;SDS011;2161;53.634;10.100;2023-04-01T19:46:43;516.25;;;109.70;;
4294;SDS011;2161;53.634;10.100;2023-04-01T19:49:36;513.20;;;106.70;;
4294;SDS011;2161;53.634;10.100;2023-04-01T19:54:47;522.42;;;113.90;;
4294;SDS011;2161;53.634;10.100;2023-04-01T19:57:25;512.20;;;106.93;;
4294;SDS011;2161;53.634;10.100;2023-04-01T20:05:46;517.63;;;109.70;;
4294;SDS011;2161;53.634;10.100;2023-04-01T20:08:42;510.80;;;106.82;;
4294;SDS011;2161;53.634;10.100;2023-04-01T20:14:47;512.58;;;106.57;;
4294;SDS011;2161;53.634;10.100;2023-04-01T20:17:20;513.05;;;106.93;;
4294;SDS011;2161;53.634;10.100;2023-04-01T20:24:56;506.77;;;104.28;;
4294;SDS011;2161;53.634;10.100;2023-04-01T20:27:38;515.67;;;109.75;;
4294;SDS011;2161;53.634;10.100;2023-04-01T20:33:08;517.22;;;110.93;;
4294;SDS011;2161;53.634;10.100;2023-04-01T20:41:30;504.83;;;104.10;;
4294;SDS011;2161;53.634;10.100;2023-04-01T20:57:34;511.88;;;110.68;;
4294;SDS011;2161;53.634;10.100;2023-04-01T21:02:52;508.65;;;106.43;;
4294;SDS011;2161;53.634;10.100;2023-04-01T21:08:32;511.67;;;108.15;;
4294;SDS011;2161;53.634;10.100;2023-04-01T21:11:41;511.45;;;107.82;;
4294;SDS011;2161;53.634;10.100;2023-04-01T21:19:45;514.38;;;108.53;;
4294;SDS011;2161;53.634;10.100;2023-04-01T21:33:35;509.17;;;106.00;;
4294;SDS011;2161;53.634;10.100;2023-04-01T21:39:37;498.40;;;103.85;;
4294;SDS011;2161;53.634;10.100;2023-04-01T21:45:16;511.08;;;111.13;;
4294;SDS011;2161;53.634;10.100;2023-04-01T21:48:12;507.75;;;107.20;;
4294;SDS011;2161;53.634;10.100;2023-04-01T22:01:55;502.98;;;105.47;;
4294;SDS011;2161;53.634;10.100;2023-04-01T22:07:15;506.48;;;107.50;;
4294;SDS011;2161;53.634;10.100;2023-04-01T22:09:51;511.48;;;108.97;;
4294;SDS011;2161;53.634;10.100;2023-04-01T22:12:35;505.13;;;107.10;;
4294;SDS011;2161;53.634;10.100;2023-04-01T22:15:27;505.15;;;107.18;;
4294;SDS011;2161;53.634;10.100;2023-04-01T22:18:19;501.48;;;104.55;;
4294;SDS011;2161;53.634;10.100;2023-04-01T22:20:58;502.88;;;107.53;;
4294;SDS011;2161;53.634;10.100;2023-04-01T22:26:32;498.27;;;103.57;;
4294;SDS011;2161;53.634;10.100;2023-04-01T22:31:35;504.75;;;108.20;;
4294;SDS011;2161;53.634;10.100;2023-04-01T22:34:24;505.00;;;109.03;;
4294;SDS011;2161;53.634;10.100;2023-04-01T22:42:20;503.08;;;106.25;;
4294;SDS011;2161;53.634;10.100;2023-04-01T22:52:46;503.52;;;108.13;;
4294;SDS011;2161;53.634;10.100;2023-04-01T22:57:50;498.23;;;104.47;;
4294;SDS011;2161;53.634;10.100;2023-04-01T23:00:24;502.75;;;107.15;;
4294;SDS011;2161;53.634;10.100;2023-04-01T23:03:06;501.00;;;106.40;;
4294;SDS011;2161;53.634;10.100;2023-04-01T23:05:51;502.80;;;111.47;;
4294;SDS011;2161;53.634;10.100;2023-04-01T23:10:58;505.38;;;109.47;;
4294;SDS011;2161;53.634;10.100;2023-04-01T23:13:41;498.98;;;104.45;;
4294;SDS011;2161;53.634;10.100;2023-04-01T23:16:19;503.20;;;106.95;;
4294;SDS011;2161;53.634;10.100;2023-04-01T23:18:57;498.83;;;106.20;;
4294;SDS011;2161;53.634;10.100;2023-04-01T23:21:36;503.77;;;107.07;;
4294;SDS011;2161;53.634;10.100;2023-04-01T23:24:21;502.42;;;106.60;;
4294;SDS011;2161;53.634;10.100;2023-04-01T23:27:00;497.23;;;104.72;;
4294;SDS011;2161;53.634;10.100;2023-04-01T23:29:34;501.05;;;110.40;;
4294;SDS011;2161;53.634;10.100;2023-04-01T23:32:05;498.13;;;104.68;;
4294;SDS011;2161;53.634;10.100;2023-04-01T23:34:40;499.02;;;106.50;;
4294;SDS011;2161;53.634;10.100;2023-04-01T23:37:16;501.10;;;106.78;;
4294;SDS011;2161;53.634;10.100;2023-04-01T23:39:51;503.38;;;107.85;;
4294;SDS011;2161;53.634;10.100;2023-04-01T23:42:26;492.13;;;102.45;;
4294;SDS011;2161;53.634;10.100;2023-04-01T23:44:58;492.55;;;102.78;;
4294;SDS011;2161;53.634;10.100;2023-04-01T23:47:32;491.00;;;101.78;;
4294;SDS011;2161;53.634;10.100;2023-04-01T23:50:02;494.88;;;104.47;;
4294;SDS011;2161;53.634;10.100;2023-04-01T23:52:53;494.38;;;105.32;;